createdAt,value
2023-01-02T00:01:02.690Z,73.29
2023-01-02T00:03:30.007Z,72.92
2023-01-02T00:05:56.716Z,72.94
2023-01-02T00:08:23.208Z,73.29
2023-01-02T00:10:52.757Z,73.21
2023-01-02T00:13:19.892Z,73.52
2023-01-02T00:15:46.577Z,72.92
2023-01-02T00:18:13.195Z,73.25
2023-01-02T00:20:39.769Z,72.86
2023-01-02T00:23:06.233Z,73.00
2023-01-02T00:25:35.097Z,72.48
2023-01-02T00:28:02.222Z,72.80
2023-01-02T00:30:33.780Z,73.09
2023-01-02T00:33:04.449Z,73.03
2023-01-02T00:35:31.312Z,73.06
2023-01-02T00:37:57.799Z,73.41
2023-01-02T00:40:24.492Z,73.37
2023-01-02T00:42:50.983Z,73.26
2023-01-02T00:45:17.595Z,73.38
2023-01-02T00:47:44.049Z,73.48
2023-01-02T00:50:10.564Z,73.67
2023-01-02T00:52:37.008Z,73.99
2023-01-02T00:55:04.102Z,73.31
2023-01-02T00:57:30.692Z,73.39
2023-01-02T00:59:57.229Z,73.06
2023-01-02T01:02:23.978Z,73.20
2023-01-02T01:04:51.154Z,73.49
2023-01-02T01:07:17.667Z,73.67
2023-01-02T01:09:44.170Z,73.55
2023-01-02T01:12:10.706Z,73.67
2023-01-02T01:14:37.194Z,73.39
2023-01-02T01:17:03.693Z,73.52
2023-01-02T01:19:33.532Z,73.47
2023-01-02T01:22:00.441Z,72.92
2023-01-02T01:24:27.563Z,72.89
2023-01-02T01:26:53.998Z,73.50
2023-01-02T01:29:20.638Z,73.17
2023-01-02T01:31:47.218Z,73.14
2023-01-02T01:34:14.558Z,72.82
2023-01-02T01:36:41.166Z,73.01
2023-01-02T01:39:07.753Z,73.14
2023-01-02T01:41:34.387Z,72.87
2023-01-02T01:44:03.027Z,72.79
2023-01-02T01:46:46.771Z,72.68
2023-01-02T01:49:29.342Z,72.17
2023-01-02T01:52:08.877Z,72.46
2023-01-02T01:54:51.016Z,72.63
2023-01-02T01:57:44.336Z,72.18
2023-01-02T02:00:11.988Z,72.52
2023-01-02T02:02:45.675Z,71.64
2023-01-02T02:05:21.956Z,71.51
2023-01-02T02:08:05.003Z,71.77
2023-01-02T02:10:32.151Z,71.71
2023-01-02T02:12:58.665Z,71.75
2023-01-02T02:16:09.571Z,71.14
2023-01-02T02:19:01.209Z,71.41
2023-01-02T02:21:48.966Z,71.47
2023-01-02T02:24:41.592Z,70.97
2023-01-02T02:27:39.375Z,71.37
2023-01-02T02:30:12.046Z,71.39
2023-01-02T02:33:12.212Z,71.04
2023-01-02T02:36:04.820Z,70.87
2023-01-02T02:39:03.619Z,70.98
2023-01-02T02:41:38.529Z,70.95
2023-01-02T02:44:23.793Z,71.08
2023-01-02T02:47:09.737Z,70.44
2023-01-02T02:49:53.075Z,70.17
2023-01-02T02:53:01.662Z,69.72
2023-01-02T02:55:38.228Z,69.93
2023-01-02T02:58:06.046Z,70.17
2023-01-02T03:00:32.513Z,70.24
2023-01-02T03:02:59.069Z,69.99
2023-01-02T03:05:30.293Z,70.24
2023-01-02T03:08:23.353Z,69.57
2023-01-02T03:11:02.214Z,69.91
2023-01-02T03:14:06.309Z,69.38
2023-01-02T03:16:43.883Z,69.82
2023-01-02T03:19:23.308Z,69.47
2023-01-02T03:22:08.540Z,69.62
2023-01-02T03:24:39.015Z,69.97
2023-01-02T03:27:12.755Z,69.22
2023-01-02T03:30:01.900Z,69.20
2023-01-02T03:32:35.383Z,70.00
2023-01-02T03:35:10.362Z,69.45
2023-01-02T03:37:44.826Z,69.12
2023-01-02T03:40:19.634Z,68.97
2023-01-02T03:43:06.984Z,68.99
2023-01-02T03:45:48.958Z,69.29
2023-01-02T03:48:37.802Z,68.99
2023-01-02T03:51:04.467Z,68.97
2023-01-02T03:53:34.917Z,68.72
2023-01-02T03:56:29.285Z,68.25
2023-01-02T03:59:25.112Z,68.23
2023-01-02T04:02:05.190Z,68.79
2023-01-02T04:04:51.577Z,68.53
2023-01-02T04:07:44.439Z,68.62
2023-01-02T04:10:14.823Z,69.00
2023-01-02T04:12:47.788Z,69.11
2023-01-02T04:15:19.895Z,68.68
2023-01-02T04:18:02.231Z,68.68
2023-01-02T04:20:44.060Z,68.21
2023-01-02T04:23:23.031Z,68.14
2023-01-02T04:26:10.665Z,67.68
2023-01-02T04:28:37.714Z,67.82
2023-01-02T04:31:26.734Z,67.58
2023-01-02T04:34:02.177Z,67.58
2023-01-02T04:36:28.677Z,66.84
2023-01-02T04:38:55.516Z,66.88
2023-01-02T04:41:27.041Z,66.02
2023-01-02T04:43:55.520Z,65.82
2023-01-02T04:46:24.080Z,65.91
2023-01-02T04:48:50.838Z,66.25
2023-01-02T04:51:17.761Z,66.13
2023-01-02T04:53:47.479Z,66.26
2023-01-02T04:56:14.287Z,65.67
2023-01-02T04:58:43.555Z,65.81
2023-01-02T05:01:16.262Z,65.61
2023-01-02T05:03:46.360Z,65.90
2023-01-02T05:06:13.730Z,65.77
2023-01-02T05:08:40.990Z,65.90
2023-01-02T05:11:17.049Z,65.51
2023-01-02T05:13:44.457Z,65.62
2023-01-02T05:16:12.266Z,65.31
2023-01-02T05:18:38.967Z,64.99
2023-01-02T05:21:32.332Z,64.69
2023-01-02T05:24:02.809Z,65.31
2023-01-02T05:26:33.318Z,65.49
2023-01-02T05:29:00.934Z,65.20
2023-01-02T05:31:28.639Z,65.08
2023-01-02T05:33:57.935Z,64.79
2023-01-02T05:36:26.686Z,64.67
2023-01-02T05:38:54.087Z,64.33
2023-01-02T05:41:23.809Z,64.64
2023-01-02T05:43:50.368Z,64.05
2023-01-02T05:46:20.601Z,64.14
2023-01-02T05:48:47.692Z,64.17
2023-01-02T05:51:17.492Z,64.19
2023-01-02T05:53:45.233Z,64.41
2023-01-02T05:56:18.204Z,63.82
2023-01-02T05:58:49.355Z,63.70
2023-01-02T06:01:19.814Z,63.68
2023-01-02T06:03:53.170Z,63.03
2023-01-02T06:06:23.583Z,63.43
2023-01-02T06:08:50.493Z,63.35
2023-01-02T06:11:17.483Z,63.19
2023-01-02T06:13:43.970Z,63.33
2023-01-02T06:16:11.820Z,63.39
2023-01-02T06:18:40.410Z,63.06
2023-01-02T06:21:11.654Z,62.65
2023-01-02T06:23:39.473Z,62.79
2023-01-02T06:26:09.677Z,62.77
2023-01-02T06:28:36.404Z,62.92
2023-01-02T06:31:14.797Z,63.14
2023-01-02T06:33:41.899Z,62.72
2023-01-02T06:36:16.099Z,62.59
2023-01-02T06:38:43.431Z,62.94
2023-01-02T06:41:10.344Z,62.47
2023-01-02T06:43:42.674Z,62.36
2023-01-02T06:46:11.695Z,62.37
2023-01-02T06:48:38.472Z,62.04
2023-01-02T06:51:13.712Z,62.36
2023-01-02T06:53:41.820Z,62.24
2023-01-02T06:56:10.273Z,62.48
2023-01-02T06:58:38.531Z,63.07
2023-01-02T07:01:09.320Z,62.25
2023-01-02T07:03:36.292Z,63.23
2023-01-02T07:06:13.120Z,63.33
2023-01-02T07:08:41.681Z,63.56
2023-01-02T07:11:19.402Z,63.84
2023-01-02T07:13:47.920Z,64.02
2023-01-02T07:16:17.824Z,63.95
2023-01-02T07:18:45.357Z,64.22
2023-01-02T07:21:14.111Z,64.11
2023-01-02T07:23:41.508Z,63.98
2023-01-02T07:26:08.842Z,63.74
2023-01-02T07:28:36.626Z,63.31
2023-01-02T07:31:12.636Z,63.57
2023-01-02T07:33:39.245Z,63.09
2023-01-02T07:36:11.585Z,62.34
2023-01-02T07:38:39.166Z,62.60
2023-01-02T07:41:17.487Z,62.15
2023-01-02T07:43:46.241Z,61.93
2023-01-02T07:46:16.339Z,61.75
2023-01-02T07:48:43.770Z,62.09
2023-01-02T07:51:11.418Z,61.62
2023-01-02T07:53:38.787Z,61.63
2023-01-02T07:56:06.069Z,61.92
2023-01-02T07:58:33.431Z,61.84
2023-01-02T08:01:11.196Z,61.58
2023-01-02T08:03:37.929Z,61.89
2023-01-02T08:06:14.741Z,61.64
2023-01-02T08:08:41.851Z,61.84
2023-01-02T08:11:14.553Z,61.28
2023-01-02T08:13:41.690Z,61.70
2023-01-02T08:16:17.820Z,61.55
2023-01-02T08:18:45.283Z,61.30
2023-01-02T08:21:11.995Z,60.69
2023-01-02T08:23:38.928Z,61.60
2023-01-02T08:26:09.699Z,61.92
2023-01-02T08:28:40.513Z,62.96
2023-01-02T08:31:16.182Z,63.28
2023-01-02T08:33:42.807Z,63.09
2023-01-02T08:36:09.881Z,62.58
2023-01-02T08:38:36.552Z,62.39
2023-01-02T08:41:03.818Z,62.69
2023-01-02T08:43:35.299Z,61.94
2023-01-02T08:46:10.069Z,61.67
2023-01-02T08:48:37.100Z,61.83
2023-01-02T08:51:05.042Z,62.03
2023-01-02T08:53:31.502Z,62.51
2023-01-02T08:56:21.701Z,62.05
2023-01-02T08:59:08.194Z,61.26
2023-01-02T09:01:36.086Z,62.19
2023-01-02T09:04:09.496Z,61.74
2023-01-02T09:06:38.904Z,61.74
2023-01-02T09:09:11.392Z,61.43
2023-01-02T09:11:46.256Z,61.45
2023-01-02T09:14:12.874Z,61.95
2023-01-02T09:16:39.376Z,61.18
2023-01-02T09:19:05.867Z,61.13
2023-01-02T09:21:32.376Z,60.93
2023-01-02T09:23:58.938Z,61.15
2023-01-02T09:26:25.715Z,61.06
2023-01-02T09:28:52.490Z,61.37
2023-01-02T09:31:20.335Z,60.99
2023-01-02T09:33:48.242Z,60.85
2023-01-02T09:36:17.901Z,60.58
2023-01-02T09:38:49.821Z,60.78
2023-01-02T09:41:35.906Z,60.41
2023-01-02T09:44:21.883Z,60.63
2023-01-02T09:47:03.123Z,60.67
2023-01-02T09:49:39.138Z,61.53
2023-01-02T09:52:11.302Z,61.88
2023-01-02T09:54:39.630Z,62.54
2023-01-02T09:57:26.822Z,63.50
2023-01-02T10:00:11.812Z,64.10
2023-01-02T10:03:26.503Z,65.33
2023-01-02T10:06:08.654Z,64.92
2023-01-02T10:08:59.833Z,65.17
2023-01-02T10:11:51.629Z,65.45
2023-01-02T10:14:53.437Z,65.85
2023-01-02T10:17:21.942Z,65.32
2023-01-02T10:20:06.723Z,65.10
2023-01-02T10:22:45.082Z,65.31
2023-01-02T10:25:36.168Z,67.05
2023-01-02T10:28:25.010Z,67.95
2023-01-02T10:31:05.524Z,68.17
2023-01-02T10:33:50.528Z,67.81
2023-01-02T10:36:27.626Z,70.42
2023-01-02T10:39:02.054Z,71.08
2023-01-02T10:41:31.417Z,70.29
2023-01-02T10:44:07.707Z,69.64
2023-01-02T10:46:37.861Z,69.91
2023-01-02T10:49:07.406Z,69.97
2023-01-02T10:51:38.048Z,69.79
2023-01-02T10:54:08.328Z,69.55
2023-01-02T10:56:39.582Z,70.63
2023-01-02T10:59:25.733Z,71.64
2023-01-02T11:01:59.911Z,70.69
2023-01-02T11:04:29.757Z,70.29
2023-01-02T11:07:00.564Z,69.78
2023-01-02T11:09:35.813Z,69.96
2023-01-02T11:12:14.183Z,70.45
2023-01-02T11:14:40.797Z,70.27
2023-01-02T11:17:20.277Z,69.92
2023-01-02T11:19:51.765Z,69.78
2023-01-02T11:22:22.099Z,70.08
2023-01-02T11:25:00.643Z,70.35
2023-01-02T11:27:44.446Z,69.97
2023-01-02T11:30:32.645Z,70.29
2023-01-02T11:33:19.278Z,69.83
2023-01-02T11:35:50.950Z,69.52
2023-01-02T11:38:42.507Z,70.00
2023-01-02T11:41:49.996Z,69.81
2023-01-02T11:44:52.949Z,69.85
2023-01-02T11:47:34.274Z,69.64
2023-01-02T11:50:02.165Z,69.34
2023-01-02T11:52:41.853Z,69.04
2023-01-02T11:55:24.451Z,68.90
2023-01-02T11:58:06.941Z,69.52
2023-01-02T12:00:40.026Z,69.36
2023-01-02T12:03:18.823Z,69.17
2023-01-02T12:06:20.548Z,69.82
2023-01-02T12:09:03.757Z,69.89
2023-01-02T12:12:03.663Z,69.28
2023-01-02T12:14:54.725Z,70.48
2023-01-02T12:17:42.779Z,69.78
2023-01-02T12:20:41.594Z,69.98
2023-01-02T12:23:43.178Z,70.26
2023-01-02T12:26:25.975Z,70.08
2023-01-02T12:29:47.064Z,70.62
2023-01-02T12:32:56.246Z,70.51
2023-01-02T12:36:23.507Z,70.41
2023-01-02T12:39:19.847Z,70.67
2023-01-02T12:42:48.787Z,70.87
2023-01-02T12:45:44.357Z,71.26
2023-01-02T12:48:47.957Z,70.94
2023-01-02T12:51:39.099Z,71.20
2023-01-02T12:54:37.238Z,70.63
2023-01-02T12:57:39.183Z,70.91
2023-01-02T13:00:27.249Z,70.62
2023-01-02T13:03:22.817Z,70.00
2023-01-02T13:05:59.660Z,70.41
2023-01-02T13:08:38.396Z,70.61
2023-01-02T13:11:09.020Z,70.30
2023-01-02T13:13:38.178Z,70.41
2023-01-02T13:16:24.920Z,70.06
2023-01-02T13:19:16.382Z,70.39
2023-01-02T13:22:02.368Z,70.60
2023-01-02T13:24:29.572Z,70.73
2023-01-02T13:26:59.014Z,70.67
2023-01-02T13:29:41.282Z,70.33
2023-01-02T13:32:11.516Z,70.60
2023-01-02T13:34:52.332Z,70.82
2023-01-02T13:37:24.674Z,70.83
2023-01-02T13:40:02.331Z,70.81
2023-01-02T13:42:56.192Z,70.52
2023-01-02T13:45:37.535Z,71.47
2023-01-02T13:48:25.562Z,71.48
2023-01-02T13:51:02.521Z,71.62
2023-01-02T13:53:50.416Z,71.08
2023-01-02T13:56:28.582Z,71.62
2023-01-02T13:59:42.112Z,71.36
2023-01-02T14:02:20.957Z,72.06
2023-01-02T14:04:47.732Z,72.55
2023-01-02T14:07:26.305Z,73.14
2023-01-02T14:10:25.175Z,72.73
2023-01-02T14:13:00.307Z,72.98
2023-01-02T14:15:28.051Z,72.89
2023-01-02T14:18:10.856Z,73.54
2023-01-02T14:20:44.029Z,73.78
2023-01-02T14:23:29.876Z,73.57
2023-01-02T14:25:56.829Z,73.47
2023-01-02T14:28:29.645Z,73.00
2023-01-02T14:30:58.308Z,72.76
2023-01-02T14:33:35.825Z,73.11
2023-01-02T14:36:14.800Z,72.74
2023-01-02T14:38:56.081Z,72.77
2023-01-02T14:42:08.855Z,72.48
2023-01-02T14:44:46.474Z,71.69
2023-01-02T14:47:18.667Z,71.33
2023-01-02T14:49:59.881Z,71.36
2023-01-02T14:52:34.892Z,71.58
2023-01-02T14:55:42.031Z,71.38
2023-01-02T14:58:43.962Z,71.59
2023-01-02T15:01:42.359Z,71.38
2023-01-02T15:04:27.850Z,71.19
2023-01-02T15:07:27.619Z,71.01
2023-01-02T15:10:11.814Z,71.31
2023-01-02T15:13:03.488Z,72.03
2023-01-02T15:15:53.648Z,71.43
2023-01-02T15:18:35.082Z,71.28
2023-01-02T15:21:10.290Z,71.07
2023-01-02T15:23:43.612Z,71.63
2023-01-02T15:26:36.680Z,71.23
2023-01-02T15:29:07.127Z,71.16
2023-01-02T15:31:33.981Z,71.28
2023-01-02T15:34:01.009Z,71.31
2023-01-02T15:36:34.483Z,71.28
2023-01-02T15:39:19.805Z,71.50
2023-01-02T15:41:52.544Z,71.37
2023-01-02T15:44:49.388Z,71.12
2023-01-02T15:47:21.179Z,71.46
2023-01-02T15:49:50.745Z,71.85
2023-01-02T15:52:26.296Z,71.94
2023-01-02T15:54:54.267Z,72.00
2023-01-02T15:57:28.264Z,71.94
2023-01-02T15:59:55.992Z,72.24
2023-01-02T16:02:42.885Z,71.86
2023-01-02T16:05:19.124Z,71.73
2023-01-02T16:07:55.301Z,71.95
2023-01-02T16:10:26.815Z,71.83
2023-01-02T16:13:29.971Z,71.83
2023-01-02T16:16:16.253Z,71.99
2023-01-02T16:18:48.193Z,73.49
2023-01-02T16:21:17.764Z,72.31
2023-01-02T16:23:54.135Z,72.17
2023-01-02T16:26:31.892Z,72.26
2023-01-02T16:28:58.657Z,71.89
2023-01-02T16:31:25.418Z,71.60
2023-01-02T16:33:51.986Z,71.97
2023-01-02T16:36:24.700Z,71.33
2023-01-02T16:38:59.408Z,71.86
2023-01-02T16:41:36.710Z,71.71
2023-01-02T16:44:12.412Z,71.59
2023-01-02T16:46:41.975Z,71.74
2023-01-02T16:49:14.756Z,71.60
2023-01-02T16:51:44.797Z,72.21
2023-01-02T16:54:16.730Z,72.20
2023-01-02T16:56:43.593Z,73.23
2023-01-02T16:59:10.309Z,73.28
2023-01-02T17:01:37.338Z,72.77
2023-01-02T17:04:04.110Z,72.86
2023-01-02T17:06:31.586Z,72.84
2023-01-02T17:08:58.055Z,72.50
2023-01-02T17:11:25.469Z,72.14
2023-01-02T17:13:53.043Z,72.04
2023-01-02T17:16:20.491Z,72.35
2023-01-02T17:18:47.056Z,71.96
2023-01-02T17:21:13.961Z,71.96
2023-01-02T17:23:40.449Z,72.21
2023-01-02T17:26:07.249Z,72.36
2023-01-02T17:28:34.068Z,72.27
2023-01-02T17:31:00.603Z,71.52
2023-01-02T17:33:27.178Z,71.33
2023-01-02T17:35:53.653Z,71.80
2023-01-02T17:38:20.268Z,71.62
2023-01-02T17:40:46.778Z,71.30
2023-01-02T17:43:13.352Z,72.23
2023-01-02T17:45:42.755Z,71.83
2023-01-02T17:48:12.327Z,72.07
2023-01-02T17:50:40.194Z,71.93
2023-01-02T17:53:07.475Z,71.55
2023-01-02T17:55:34.051Z,72.19
2023-01-02T17:58:00.985Z,72.38
2023-01-02T18:00:27.817Z,71.81
2023-01-02T18:02:54.543Z,71.69
2023-01-02T18:05:22.427Z,71.94
2023-01-02T18:07:48.982Z,72.20
2023-01-02T18:10:20.068Z,71.81
2023-01-02T18:12:49.035Z,72.25
2023-01-02T18:15:17.216Z,71.84
2023-01-02T18:17:43.771Z,71.69
2023-01-02T18:20:22.828Z,71.76
2023-01-02T18:22:50.767Z,71.72
2023-01-02T18:25:30.954Z,71.46
2023-01-02T18:28:10.722Z,71.22
2023-01-02T18:30:37.356Z,71.65
2023-01-02T18:33:15.835Z,71.96
2023-01-02T18:35:59.230Z,72.11
2023-01-02T18:38:39.236Z,71.54
2023-01-02T18:41:32.726Z,71.50
2023-01-02T18:44:21.060Z,71.99
2023-01-02T18:47:04.155Z,71.70
2023-01-02T18:49:41.777Z,72.03
2023-01-02T18:52:11.227Z,72.12
2023-01-02T18:54:45.666Z,71.95
2023-01-02T18:57:18.187Z,72.31
2023-01-02T18:59:50.751Z,72.68
2023-01-02T19:02:46.145Z,72.50
2023-01-02T19:05:29.543Z,72.57
2023-01-02T19:08:08.067Z,72.53
2023-01-02T19:10:40.092Z,72.81
2023-01-02T19:13:34.944Z,72.70
2023-01-02T19:16:05.631Z,72.75
2023-01-02T19:18:44.754Z,72.28
2023-01-02T19:21:31.224Z,72.76
2023-01-02T19:24:04.872Z,72.50
2023-01-02T19:26:50.044Z,72.86
2023-01-02T19:29:23.451Z,72.57
2023-01-02T19:32:22.050Z,72.58
2023-01-02T19:34:50.609Z,71.24
2023-01-02T19:37:28.850Z,74.22
2023-01-02T19:39:58.723Z,75.27
2023-01-02T19:42:28.630Z,76.08
2023-01-02T19:44:56.237Z,75.82
2023-01-02T19:47:26.719Z,75.03
2023-01-02T19:49:53.783Z,75.31
2023-01-02T19:52:22.314Z,74.75
2023-01-02T19:54:50.403Z,74.38
2023-01-02T19:57:17.711Z,73.98
2023-01-02T19:59:49.886Z,72.96
2023-01-02T20:02:19.819Z,73.68
2023-01-02T20:04:49.597Z,73.42
2023-01-02T20:07:16.965Z,73.41
2023-01-02T20:09:44.359Z,73.07
2023-01-02T20:12:29.259Z,73.14
2023-01-02T20:14:57.528Z,72.36
2023-01-02T20:17:24.075Z,72.62
2023-01-02T20:19:50.655Z,72.49
2023-01-02T20:22:17.100Z,72.27
2023-01-02T20:24:43.589Z,72.62
2023-01-02T20:27:10.083Z,72.64
2023-01-02T20:29:36.821Z,72.54
2023-01-02T20:32:03.446Z,72.99
2023-01-02T20:34:29.995Z,73.17
2023-01-02T20:36:56.503Z,73.74
2023-01-02T20:39:22.985Z,73.92
2023-01-02T20:41:49.862Z,73.88
2023-01-02T20:44:16.510Z,74.11
2023-01-02T20:46:43.718Z,73.62
2023-01-02T20:49:11.495Z,73.64
2023-01-02T20:51:38.925Z,73.66
2023-01-02T20:54:07.561Z,73.44
2023-01-02T20:56:34.919Z,73.26
2023-01-02T20:59:01.444Z,73.25
2023-01-02T21:01:28.127Z,73.26
2023-01-02T21:03:54.838Z,73.28
2023-01-02T21:06:21.488Z,72.87
2023-01-02T21:08:48.133Z,73.13
2023-01-02T21:11:14.654Z,73.44
2023-01-02T21:13:41.170Z,73.22
2023-01-02T21:16:07.696Z,73.30
2023-01-02T21:18:38.847Z,73.53
2023-01-02T21:21:15.306Z,73.80
2023-01-02T21:23:42.087Z,73.72
2023-01-02T21:26:12.333Z,73.34
2023-01-02T21:28:39.077Z,73.29
2023-01-02T21:31:06.664Z,72.98
2023-01-02T21:33:34.034Z,72.95
2023-01-02T21:36:02.767Z,72.86
2023-01-02T21:38:30.049Z,73.03
2023-01-02T21:41:20.706Z,73.10
2023-01-02T21:43:47.948Z,72.61
2023-01-02T21:46:14.894Z,72.58
2023-01-02T21:48:41.547Z,72.99
2023-01-02T21:51:08.500Z,72.95
2023-01-02T21:53:35.263Z,72.97
2023-01-02T21:56:01.811Z,72.56
2023-01-02T21:58:28.310Z,72.36
2023-01-02T22:00:54.863Z,72.46
2023-01-02T22:03:21.515Z,72.64
2023-01-02T22:05:48.026Z,71.84
2023-01-02T22:08:14.679Z,72.12
2023-01-02T22:10:41.254Z,72.22
2023-01-02T22:13:07.772Z,72.34
2023-01-02T22:15:34.310Z,71.88
2023-01-02T22:18:00.821Z,72.07
2023-01-02T22:20:27.381Z,71.84
2023-01-02T22:22:53.897Z,71.81
2023-01-02T22:25:20.423Z,71.85
2023-01-02T22:27:46.952Z,71.57
2023-01-02T22:30:31.055Z,71.24
2023-01-02T22:33:00.465Z,71.25
2023-01-02T22:35:27.573Z,71.53
2023-01-02T22:37:54.202Z,71.72
2023-01-02T22:40:20.901Z,71.77
2023-01-02T22:43:09.017Z,71.30
2023-01-02T22:45:49.657Z,71.32
2023-01-02T22:48:30.273Z,71.17
2023-01-02T22:51:00.408Z,70.98
2023-01-02T22:53:32.706Z,71.22
2023-01-02T22:56:02.528Z,71.98
2023-01-02T22:58:29.046Z,71.79
2023-01-02T23:01:30.594Z,71.54
2023-01-02T23:03:57.825Z,71.63
2023-01-02T23:06:24.454Z,71.94
2023-01-02T23:08:52.649Z,71.74
2023-01-02T23:11:21.483Z,71.67
2023-01-02T23:13:56.118Z,71.77
2023-01-02T23:16:42.065Z,71.68
2023-01-02T23:19:14.515Z,72.12
2023-01-02T23:21:59.204Z,71.59
2023-01-02T23:24:36.432Z,71.64
2023-01-02T23:27:12.298Z,71.59
2023-01-02T23:29:40.182Z,71.25
2023-01-02T23:32:10.264Z,70.98
2023-01-02T23:34:37.355Z,71.24
2023-01-02T23:37:04.529Z,71.08
2023-01-02T23:39:33.270Z,70.50
2023-01-02T23:42:00.671Z,70.37
2023-01-02T23:44:27.415Z,70.52
2023-01-02T23:46:55.267Z,70.73
2023-01-02T23:49:23.270Z,70.38
2023-01-02T23:51:51.653Z,70.49
2023-01-02T23:54:20.025Z,70.49
2023-01-02T23:56:49.150Z,70.84
2023-01-02T23:59:23.685Z,71.22
